Terminal Aerodrome Forecast
Issued by NWS

Home | Current Version | Previous Version | Text Only | Print | Product List | Glossary On
Versions: 1 2 3 4 5 6 7 8 9 10 11 12 13 14 15 16 17 18
639
FTUS41 KBGM 120725 AAA
TAFRME
TAF AMD
KRME 120725Z 1207/1306 12010KT 1 1/2SM -SN OVC015
      TEMPO 1207/1210 1/2SM SN OVC009
     FM121500 16007KT P6SM OVC015
     FM121800 23008G16KT 2SM -SHRASN OVC012
     FM122000 26012G20KT 3/4SM -SHSN OVC009
     FM122300 27010G17KT 2SM -SHSN OVC015=

USA.gov is the U.S. government's official web portal to all federal, state and local government web resources and services.